createdAt,value
2023-10-03T00:00:12.777Z,5.78
2023-10-03T00:03:21.544Z,8.55
2023-10-03T00:06:27.178Z,10.65
2023-10-03T00:09:33.888Z,9.45
2023-10-03T00:12:39.205Z,8.30
2023-10-03T00:15:45.994Z,6.53
2023-10-03T00:18:51.393Z,5.47
2023-10-03T00:21:57.182Z,5.03
2023-10-03T00:25:03.116Z,5.65
2023-10-03T00:28:13.614Z,6.63
2023-10-03T00:31:19.201Z,7.07
2023-10-03T00:34:25.277Z,5.57
2023-10-03T00:37:31.109Z,4.70
2023-10-03T00:40:40.048Z,4.45
2023-10-03T00:43:45.656Z,4.90
2023-10-03T00:46:52.541Z,4.28
2023-10-03T00:49:58.168Z,4.55
2023-10-03T00:53:05.448Z,4.15
2023-10-03T00:56:12.570Z,3.95
2023-10-03T00:59:18.530Z,4.35
2023-10-03T01:02:27.016Z,4.05
2023-10-03T01:05:32.936Z,4.65
2023-10-03T01:08:38.951Z,4.32
2023-10-03T01:11:46.872Z,5.50
2023-10-03T01:14:36.364Z,5.88
2023-10-03T01:17:42.571Z,5.78
2023-10-03T01:20:48.042Z,5.38
2023-10-03T01:23:57.041Z,4.72
2023-10-03T01:27:02.896Z,4.40
2023-10-03T01:30:08.451Z,4.13
2023-10-03T01:33:17.209Z,4.60
2023-10-03T01:36:23.280Z,4.53
2023-10-03T01:39:29.185Z,4.60
2023-10-03T01:42:35.141Z,4.65
2023-10-03T01:45:44.013Z,4.63
2023-10-03T01:48:49.560Z,5.38
2023-10-03T01:51:55.345Z,4.78
2023-10-03T01:55:04.310Z,4.38
2023-10-03T01:57:55.027Z,4.90
2023-10-03T02:01:01.135Z,4.45
2023-10-03T02:04:06.481Z,4.50
2023-10-03T02:07:12.164Z,4.70
2023-10-03T02:10:17.798Z,4.07
2023-10-03T02:13:24.480Z,4.35
2023-10-03T02:16:12.167Z,4.40
2023-10-03T02:18:58.289Z,4.53
2023-10-03T02:21:44.129Z,5.03
2023-10-03T02:24:31.822Z,4.75
2023-10-03T02:27:18.570Z,4.72
2023-10-03T02:30:13.397Z,4.72
2023-10-03T02:33:09.687Z,5.57
2023-10-03T02:35:56.002Z,5.60
2023-10-03T02:39:02.302Z,7.75
2023-10-03T02:42:09.975Z,7.40
2023-10-03T02:45:17.688Z,7.13
2023-10-03T02:48:36.559Z,6.85
2023-10-03T02:51:43.054Z,5.43
2023-10-03T02:54:50.277Z,6.07
2023-10-03T02:57:58.051Z,4.82
2023-10-03T03:01:22.226Z,5.65
2023-10-03T03:04:27.845Z,5.13
2023-10-03T03:07:35.302Z,5.70
2023-10-03T03:10:41.025Z,5.22
2023-10-03T03:13:49.566Z,5.35
2023-10-03T03:16:54.792Z,5.65
2023-10-03T03:20:02.431Z,6.30
2023-10-03T03:23:09.522Z,6.38
2023-10-03T03:26:15.513Z,5.45
2023-10-03T03:29:21.209Z,6.18
2023-10-03T03:32:27.202Z,5.70
2023-10-03T03:35:35.775Z,7.07
2023-10-03T03:38:41.420Z,5.53
2023-10-03T03:41:46.733Z,5.47
2023-10-03T03:44:52.721Z,5.55
2023-10-03T03:47:40.846Z,6.22
2023-10-03T03:50:46.920Z,6.00
2023-10-03T03:53:53.652Z,5.72
2023-10-03T03:56:59.390Z,6.65
2023-10-03T04:00:05.933Z,6.00
2023-10-03T04:03:21.355Z,5.20
2023-10-03T04:06:26.791Z,5.43
2023-10-03T04:09:32.544Z,5.88
2023-10-03T04:12:39.165Z,6.43
2023-10-03T04:15:45.241Z,5.60
2023-10-03T04:18:52.082Z,6.13
2023-10-03T04:21:59.509Z,7.35
2023-10-03T04:25:05.075Z,25.83
2023-10-03T04:28:15.412Z,15.52
2023-10-03T04:31:20.941Z,13.70
2023-10-03T04:34:27.041Z,9.90
2023-10-03T04:37:32.784Z,8.30
2023-10-03T04:40:42.881Z,7.75
2023-10-03T04:43:49.442Z,7.95
2023-10-03T04:46:58.481Z,8.73
2023-10-03T04:50:04.091Z,8.75
2023-10-03T04:53:11.137Z,7.50
2023-10-03T04:56:16.977Z,7.60
2023-10-03T04:59:23.044Z,9.32
2023-10-03T05:02:32.019Z,8.40
2023-10-03T05:05:42.671Z,8.48
2023-10-03T05:08:48.357Z,9.23
2023-10-03T05:11:54.296Z,9.82
2023-10-03T05:15:03.569Z,9.05
2023-10-03T05:18:10.437Z,8.95
2023-10-03T05:21:17.739Z,7.50
2023-10-03T05:24:05.117Z,7.32
2023-10-03T05:27:12.106Z,6.57
2023-10-03T05:30:18.438Z,6.68
2023-10-03T05:33:28.827Z,7.50
2023-10-03T05:36:39.030Z,7.72
2023-10-03T05:39:27.839Z,7.03
2023-10-03T05:42:34.187Z,7.13
2023-10-03T05:45:21.158Z,7.20
2023-10-03T05:48:07.733Z,7.50
2023-10-03T05:50:56.880Z,7.40
2023-10-03T05:53:45.815Z,7.40
2023-10-03T05:56:32.090Z,7.63
2023-10-03T05:59:17.546Z,6.90
2023-10-03T06:02:26.907Z,7.07
2023-10-03T06:05:33.162Z,6.97
2023-10-03T06:08:38.809Z,7.68
2023-10-03T06:11:46.314Z,7.65
2023-10-03T06:14:51.783Z,8.20
2023-10-03T06:17:59.092Z,9.18
2023-10-03T06:21:05.259Z,7.13
2023-10-03T06:23:52.281Z,7.43
2023-10-03T06:26:58.323Z,7.85
2023-10-03T06:30:06.988Z,7.63
2023-10-03T06:33:13.264Z,8.35
2023-10-03T06:36:19.186Z,7.22
2023-10-03T06:39:25.120Z,7.82
2023-10-03T06:42:10.618Z,8.25
2023-10-03T06:44:56.341Z,8.07
2023-10-03T06:48:05.400Z,7.90
2023-10-03T06:51:12.153Z,7.40
2023-10-03T06:54:17.719Z,8.00
2023-10-03T06:57:24.125Z,8.27
2023-10-03T07:00:32.041Z,7.53
2023-10-03T07:03:37.725Z,7.60
2023-10-03T07:06:44.280Z,7.47
2023-10-03T07:09:52.862Z,8.45
2023-10-03T07:12:58.632Z,7.78
2023-10-03T07:16:05.250Z,7.57
2023-10-03T07:19:12.031Z,6.72
2023-10-03T07:22:18.327Z,7.82
2023-10-03T07:25:25.619Z,7.22
2023-10-03T07:28:33.304Z,7.50
2023-10-03T07:31:39.066Z,6.85
2023-10-03T07:34:45.096Z,7.35
2023-10-03T07:37:51.037Z,7.63
2023-10-03T07:40:57.126Z,7.63
2023-10-03T07:44:02.939Z,7.78
2023-10-03T07:47:08.538Z,7.45
2023-10-03T07:50:14.014Z,8.02
2023-10-03T07:53:21.384Z,6.95
2023-10-03T07:56:35.930Z,8.05
2023-10-03T07:59:41.311Z,8.30
2023-10-03T08:02:49.880Z,7.47
2023-10-03T08:05:59.378Z,7.38
2023-10-03T08:09:05.354Z,9.18
2023-10-03T08:11:53.404Z,6.97
2023-10-03T08:15:00.582Z,6.97
2023-10-03T08:18:09.149Z,8.40
2023-10-03T08:21:17.812Z,8.80
2023-10-03T08:24:23.999Z,7.47
2023-10-03T08:27:35.641Z,7.53
2023-10-03T08:30:47.601Z,6.38
2023-10-03T08:33:55.957Z,7.35
2023-10-03T08:37:02.116Z,6.53
2023-10-03T08:40:08.845Z,6.00
2023-10-03T08:43:16.099Z,5.47
2023-10-03T08:46:23.088Z,6.93
2023-10-03T08:49:31.348Z,6.30
2023-10-03T08:52:37.078Z,5.88
2023-10-03T08:55:43.134Z,5.72
2023-10-03T08:58:49.230Z,7.15
2023-10-03T09:01:58.596Z,5.55
2023-10-03T09:05:04.494Z,5.25
2023-10-03T09:08:16.660Z,4.65
2023-10-03T09:11:21.818Z,4.45
2023-10-03T09:14:29.738Z,4.05
2023-10-03T09:17:42.480Z,5.13
2023-10-03T09:20:50.563Z,4.90
2023-10-03T09:24:23.047Z,5.32
2023-10-03T09:27:41.162Z,4.47
2023-10-03T09:30:47.617Z,5.30
2023-10-03T09:33:57.669Z,4.20
2023-10-03T09:37:05.895Z,4.30
2023-10-03T09:40:11.889Z,4.15
2023-10-03T09:43:21.013Z,4.10
2023-10-03T09:46:26.995Z,3.90
2023-10-03T09:49:33.221Z,3.85
2023-10-03T09:52:39.292Z,3.33
2023-10-03T09:55:49.242Z,2.58
2023-10-03T09:58:57.156Z,3.05
2023-10-03T10:02:03.429Z,3.28
2023-10-03T10:05:11.253Z,3.17
2023-10-03T10:08:19.931Z,3.67
2023-10-03T10:11:28.908Z,3.40
2023-10-03T10:14:36.393Z,3.00
2023-10-03T10:17:43.600Z,3.50
2023-10-03T10:20:54.849Z,3.72
2023-10-03T10:24:42.254Z,3.15
2023-10-03T10:27:50.523Z,3.53
2023-10-03T10:30:58.619Z,3.80
2023-10-03T10:34:05.384Z,3.58
2023-10-03T10:37:23.807Z,4.10
2023-10-03T10:40:13.681Z,3.40
2023-10-03T10:43:28.135Z,3.65
2023-10-03T10:46:53.227Z,3.25
2023-10-03T10:50:14.040Z,3.53
2023-10-03T10:53:27.860Z,3.53
2023-10-03T10:56:16.406Z,3.53
2023-10-03T10:59:29.445Z,3.67
2023-10-03T11:02:48.691Z,3.03
2023-10-03T11:06:06.056Z,3.10
2023-10-03T11:09:11.870Z,3.47
2023-10-03T11:12:19.230Z,3.42
2023-10-03T11:15:32.277Z,3.17
2023-10-03T11:18:49.650Z,3.15
2023-10-03T11:21:36.705Z,2.45
2023-10-03T11:24:44.775Z,2.85
2023-10-03T11:27:52.211Z,2.90
2023-10-03T11:30:59.320Z,3.50
2023-10-03T11:34:07.339Z,2.80
2023-10-03T11:37:12.615Z,3.63
2023-10-03T11:40:30.541Z,3.35
2023-10-03T11:43:43.068Z,3.60
2023-10-03T11:47:01.087Z,3.13
2023-10-03T11:50:08.059Z,2.75
2023-10-03T11:53:15.731Z,3.15
2023-10-03T11:56:24.569Z,3.63
2023-10-03T11:59:31.025Z,3.00
2023-10-03T12:02:36.528Z,2.90
2023-10-03T12:05:44.093Z,3.30
2023-10-03T12:08:49.996Z,3.55
2023-10-03T12:11:57.451Z,3.50
2023-10-03T12:15:06.449Z,2.50
2023-10-03T12:18:16.396Z,3.13
2023-10-03T12:21:23.387Z,3.83
2023-10-03T12:24:29.147Z,3.65
2023-10-03T12:27:34.839Z,3.60
2023-10-03T12:30:40.678Z,3.38
2023-10-03T12:33:45.908Z,3.45
2023-10-03T12:36:51.766Z,3.10
2023-10-03T12:39:57.471Z,3.08
2023-10-03T12:43:10.638Z,2.90
2023-10-03T12:46:19.617Z,3.15
2023-10-03T12:49:25.976Z,3.40
2023-10-03T12:52:32.114Z,2.60
2023-10-03T12:55:38.284Z,2.55
2023-10-03T12:58:43.684Z,2.70
2023-10-03T13:01:49.277Z,2.03
2023-10-03T13:04:55.014Z,2.67
2023-10-03T13:08:01.112Z,2.45
2023-10-03T13:11:07.421Z,3.95
2023-10-03T13:14:13.464Z,2.65
2023-10-03T13:17:20.172Z,2.65
2023-10-03T13:20:27.571Z,2.45
2023-10-03T13:23:33.368Z,2.40
2023-10-03T13:26:38.876Z,2.20
2023-10-03T13:29:44.518Z,2.15
2023-10-03T13:32:50.306Z,2.30
2023-10-03T13:35:55.678Z,1.98
2023-10-03T13:39:01.471Z,2.53
2023-10-03T13:42:07.525Z,2.30
2023-10-03T13:44:58.256Z,2.88
2023-10-03T13:48:05.110Z,2.60
2023-10-03T13:51:10.807Z,2.40
2023-10-03T13:54:18.221Z,2.20
2023-10-03T13:57:24.421Z,3.55
2023-10-03T14:00:33.841Z,2.55
2023-10-03T14:03:40.806Z,2.97
2023-10-03T14:06:47.270Z,3.28
2023-10-03T14:09:53.113Z,2.47
2023-10-03T14:12:58.682Z,2.88
2023-10-03T14:16:04.242Z,2.88
2023-10-03T14:19:10.493Z,2.50
2023-10-03T14:22:16.098Z,3.35
2023-10-03T14:25:22.530Z,2.85
2023-10-03T14:28:28.105Z,2.50
2023-10-03T14:31:34.012Z,2.42
2023-10-03T14:34:39.807Z,2.50
2023-10-03T14:37:45.275Z,3.80
2023-10-03T14:40:50.808Z,3.10
2023-10-03T14:43:56.464Z,2.85
2023-10-03T14:47:02.005Z,2.88
2023-10-03T14:50:08.121Z,3.95
2023-10-03T14:53:14.224Z,2.97
2023-10-03T14:56:25.545Z,3.47
2023-10-03T14:59:29.040Z,2.85
2023-10-03T15:02:34.947Z,4.28
2023-10-03T15:05:41.398Z,3.45
2023-10-03T15:08:49.970Z,4.18
2023-10-03T15:11:55.624Z,4.97
2023-10-03T15:15:03.915Z,18.23
2023-10-03T15:18:10.166Z,39.45
2023-10-03T15:21:19.184Z,18.88
2023-10-03T15:24:25.440Z,12.68
2023-10-03T15:27:32.575Z,6.60
2023-10-03T15:30:39.125Z,7.15
2023-10-03T15:33:46.402Z,5.60
2023-10-03T15:36:55.139Z,6.35
2023-10-03T15:40:00.778Z,4.55
2023-10-03T15:43:07.919Z,4.40
2023-10-03T15:45:55.103Z,5.60
2023-10-03T15:48:44.462Z,5.97
2023-10-03T15:51:32.046Z,5.35
2023-10-03T15:54:38.728Z,4.80
2023-10-03T15:57:46.211Z,5.30
2023-10-03T16:00:32.254Z,5.30
2023-10-03T16:03:37.780Z,4.60
2023-10-03T16:06:26.842Z,4.40
2023-10-03T16:09:16.356Z,3.58
2023-10-03T16:12:03.057Z,3.75
2023-10-03T16:14:48.515Z,4.25
2023-10-03T16:17:35.181Z,3.60
2023-10-03T16:20:41.378Z,4.93
2023-10-03T16:23:27.895Z,4.78
2023-10-03T16:26:34.436Z,5.25
2023-10-03T16:29:42.016Z,8.45
2023-10-03T16:32:48.190Z,6.75
2023-10-03T16:35:54.417Z,5.28
2023-10-03T16:39:00.330Z,4.85
2023-10-03T16:42:07.106Z,5.00
2023-10-03T16:45:13.775Z,4.88
2023-10-03T16:48:22.803Z,5.13
2023-10-03T16:51:10.037Z,6.18
2023-10-03T16:54:15.972Z,5.88
2023-10-03T16:57:22.138Z,5.55
2023-10-03T17:00:28.518Z,4.95
2023-10-03T17:03:34.989Z,5.03
2023-10-03T17:06:41.415Z,5.00
2023-10-03T17:09:47.546Z,4.82
2023-10-03T17:12:53.993Z,5.05
2023-10-03T17:15:56.252Z,4.22
2023-10-03T17:19:03.380Z,4.75
2023-10-03T17:22:09.838Z,3.95
2023-10-03T17:25:16.177Z,4.70
2023-10-03T17:28:22.809Z,5.53
2023-10-03T17:31:28.685Z,9.93
2023-10-03T17:34:34.471Z,9.52
2023-10-03T17:37:40.412Z,8.63
2023-10-03T17:40:48.818Z,8.15
2023-10-03T17:43:56.454Z,8.43
2023-10-03T17:47:02.261Z,9.05
2023-10-03T17:50:09.034Z,9.80
2023-10-03T17:53:14.312Z,8.25
2023-10-03T17:56:22.010Z,8.15
2023-10-03T17:59:27.342Z,8.15
2023-10-03T18:02:34.068Z,7.60
2023-10-03T18:05:41.988Z,7.10
2023-10-03T18:08:28.506Z,6.28
2023-10-03T18:11:15.365Z,6.28
2023-10-03T18:14:01.726Z,6.40
2023-10-03T18:16:47.484Z,7.47
2023-10-03T18:19:53.460Z,7.25
2023-10-03T18:23:01.058Z,6.93
2023-10-03T18:26:08.349Z,7.15
2023-10-03T18:29:13.748Z,6.85
2023-10-03T18:32:21.767Z,7.90
2023-10-03T18:35:31.321Z,7.43
2023-10-03T18:38:37.048Z,6.85
2023-10-03T18:41:44.095Z,6.80
2023-10-03T18:44:50.225Z,6.43
2023-10-03T18:47:56.552Z,7.05
2023-10-03T18:51:02.488Z,7.22
2023-10-03T18:54:09.480Z,8.48
2023-10-03T18:57:16.321Z,14.48
2023-10-03T19:00:24.023Z,14.27
2023-10-03T19:03:30.580Z,12.20
2023-10-03T19:06:36.299Z,11.02
2023-10-03T19:09:26.549Z,9.05
2023-10-03T19:12:33.205Z,8.70
2023-10-03T19:15:39.168Z,7.47
2023-10-03T19:18:44.738Z,7.88
2023-10-03T19:21:50.412Z,7.07
2023-10-03T19:24:56.564Z,7.47
2023-10-03T19:28:02.539Z,6.80
2023-10-03T19:31:08.466Z,7.00
2023-10-03T19:34:14.248Z,7.43
2023-10-03T19:37:19.884Z,8.25
2023-10-03T19:40:26.063Z,7.35
2023-10-03T19:43:32.239Z,7.63
2023-10-03T19:46:40.184Z,8.90
2023-10-03T19:49:45.955Z,8.38
2023-10-03T19:52:52.795Z,8.32
2023-10-03T19:55:59.417Z,8.50
2023-10-03T19:59:05.249Z,7.22
2023-10-03T20:02:11.132Z,7.35
2023-10-03T20:05:16.913Z,8.32
2023-10-03T20:08:23.691Z,7.82
2023-10-03T20:11:30.450Z,8.32
2023-10-03T20:14:36.180Z,7.30
2023-10-03T20:17:42.194Z,8.15
2023-10-03T20:20:48.061Z,8.27
2023-10-03T20:23:54.795Z,7.70
2023-10-03T20:27:00.418Z,7.60
2023-10-03T20:30:07.627Z,7.43
2023-10-03T20:33:16.516Z,7.15
2023-10-03T20:36:23.587Z,7.15
2023-10-03T20:39:32.084Z,6.95
2023-10-03T20:42:37.739Z,5.68
2023-10-03T20:45:43.869Z,6.50
2023-10-03T20:48:50.545Z,6.55
2023-10-03T20:51:57.196Z,6.10
2023-10-03T20:55:02.706Z,5.95
2023-10-03T20:58:07.974Z,5.85
2023-10-03T21:01:14.373Z,5.32
2023-10-03T21:04:23.034Z,5.88
2023-10-03T21:07:29.508Z,6.70
2023-10-03T21:10:35.694Z,5.85
2023-10-03T21:13:42.318Z,5.80
2023-10-03T21:16:49.276Z,5.70
2023-10-03T21:19:58.596Z,5.72
2023-10-03T21:23:05.280Z,5.50
2023-10-03T21:26:14.168Z,6.40
2023-10-03T21:29:00.672Z,6.10
2023-10-03T21:31:50.351Z,6.78
2023-10-03T21:34:39.697Z,6.22
2023-10-03T21:37:26.612Z,6.63
2023-10-03T21:40:34.457Z,6.82
2023-10-03T21:43:39.972Z,6.30
2023-10-03T21:46:45.933Z,5.80
2023-10-03T21:49:51.865Z,6.10
2023-10-03T21:53:00.379Z,5.18
2023-10-03T21:56:07.042Z,5.60
2023-10-03T21:59:13.641Z,5.75
2023-10-03T22:02:20.356Z,4.47
2023-10-03T22:05:26.523Z,4.82
2023-10-03T22:08:32.205Z,5.30
2023-10-03T22:11:41.171Z,4.82
2023-10-03T22:14:46.901Z,5.22
2023-10-03T22:17:55.667Z,5.05
2023-10-03T22:21:01.463Z,5.22
2023-10-03T22:24:10.312Z,5.45
2023-10-03T22:27:16.676Z,5.00
2023-10-03T22:30:25.573Z,4.50
2023-10-03T22:33:32.460Z,4.15
2023-10-03T22:36:38.188Z,4.72
2023-10-03T22:39:43.967Z,4.57
2023-10-03T22:42:49.706Z,4.40
2023-10-03T22:45:55.682Z,4.47
2023-10-03T22:49:03.903Z,4.53
2023-10-03T22:52:10.988Z,4.32
2023-10-03T22:55:16.537Z,4.20
2023-10-03T22:58:25.430Z,3.92
2023-10-03T23:01:32.946Z,4.93
2023-10-03T23:04:38.545Z,4.45
2023-10-03T23:07:43.980Z,4.20
2023-10-03T23:10:52.643Z,4.07
2023-10-03T23:14:00.171Z,3.80
2023-10-03T23:17:09.065Z,3.55
2023-10-03T23:20:17.714Z,4.13
2023-10-03T23:23:24.224Z,4.20
2023-10-03T23:26:32.924Z,3.65
2023-10-03T23:29:39.162Z,3.55
2023-10-03T23:32:45.190Z,3.22
2023-10-03T23:35:50.667Z,3.28
2023-10-03T23:38:58.418Z,3.10
2023-10-03T23:42:04.017Z,5.32
2023-10-03T23:45:10.782Z,4.22
2023-10-03T23:48:19.704Z,4.80
2023-10-03T23:51:28.834Z,3.55
2023-10-03T23:54:36.522Z,4.18
2023-10-03T23:57:41.997Z,3.95
